createdAt,value
2022-11-21T00:01:29.242Z,17.43
2022-11-21T00:03:57.249Z,14.87
2022-11-21T00:06:25.129Z,15.90
2022-11-21T00:08:52.608Z,14.83
2022-11-21T00:11:19.947Z,15.70
2022-11-21T00:13:47.453Z,17.50
2022-11-21T00:16:16.651Z,16.27
2022-11-21T00:18:44.600Z,18.33
2022-11-21T00:21:15.112Z,17.83
2022-11-21T00:23:43.554Z,17.37
2022-11-21T00:26:13.472Z,17.33
2022-11-21T00:28:40.914Z,17.07
2022-11-21T00:31:08.117Z,18.20
2022-11-21T00:33:36.970Z,16.20
2022-11-21T00:36:08.998Z,18.00
2022-11-21T00:38:36.923Z,18.10
2022-11-21T00:41:04.428Z,16.80
2022-11-21T00:43:32.235Z,17.87
2022-11-21T00:46:01.288Z,16.83
2022-11-21T00:48:29.830Z,17.73
2022-11-21T00:50:57.037Z,18.10
2022-11-21T00:53:24.671Z,17.47
2022-11-21T00:55:51.804Z,16.50
2022-11-21T00:58:18.947Z,19.83
2022-11-21T01:00:46.648Z,18.33
2022-11-21T01:03:13.887Z,21.13
2022-11-21T01:05:41.041Z,17.40
2022-11-21T01:08:08.222Z,20.93
2022-11-21T01:10:36.421Z,20.67
2022-11-21T01:13:03.874Z,23.40
2022-11-21T01:15:31.123Z,22.67
2022-11-21T01:17:58.308Z,27.77
2022-11-21T01:20:25.856Z,30.43
2022-11-21T01:22:53.003Z,29.73
2022-11-21T01:25:20.358Z,34.17
2022-11-21T01:27:47.976Z,34.73
2022-11-21T01:30:15.246Z,38.30
2022-11-21T01:32:42.624Z,30.30
2022-11-21T01:35:09.808Z,23.70
2022-11-21T01:37:37.258Z,32.57
2022-11-21T01:40:04.882Z,35.50
2022-11-21T01:43:04.163Z,25.10
2022-11-21T01:45:59.543Z,27.03
2022-11-21T01:48:42.562Z,26.43
2022-11-21T01:51:47.019Z,24.23
2022-11-21T01:54:27.116Z,21.67
2022-11-21T01:57:08.617Z,28.13
2022-11-21T01:59:49.871Z,25.57
2022-11-21T02:02:20.687Z,21.47
2022-11-21T02:04:49.950Z,22.60
2022-11-21T02:07:21.247Z,20.83
2022-11-21T02:09:54.102Z,28.73
2022-11-21T02:12:32.417Z,18.17
2022-11-21T02:15:00.426Z,16.13
2022-11-21T02:17:30.239Z,26.90
2022-11-21T02:20:00.504Z,18.97
2022-11-21T02:22:45.608Z,19.73
2022-11-21T02:25:19.192Z,24.77
2022-11-21T02:27:48.852Z,20.30
2022-11-21T02:30:17.288Z,18.90
2022-11-21T02:32:49.221Z,23.97
2022-11-21T02:35:18.466Z,18.93
2022-11-21T02:38:01.877Z,30.93
2022-11-21T02:40:34.645Z,28.53
2022-11-21T02:43:16.448Z,23.27
2022-11-21T02:45:45.546Z,22.20
2022-11-21T02:48:14.113Z,20.77
2022-11-21T02:50:44.494Z,18.37
2022-11-21T02:53:15.248Z,22.40
2022-11-21T02:55:43.312Z,19.70
2022-11-21T02:58:11.156Z,18.77
2022-11-21T03:00:40.352Z,18.57
2022-11-21T03:03:08.165Z,18.53
2022-11-21T03:05:35.862Z,18.43
2022-11-21T03:08:04.183Z,17.63
2022-11-21T03:10:31.757Z,18.50
2022-11-21T03:13:02.217Z,18.77
2022-11-21T03:15:31.477Z,15.73
2022-11-21T03:18:01.031Z,16.80
2022-11-21T03:20:30.105Z,16.43
2022-11-21T03:22:57.298Z,18.27
2022-11-21T03:25:24.680Z,17.10
2022-11-21T03:27:55.954Z,18.07
2022-11-21T03:30:25.715Z,16.67
2022-11-21T03:32:55.861Z,15.70
2022-11-21T03:35:23.194Z,18.50
2022-11-21T03:37:50.586Z,18.00
2022-11-21T03:40:18.001Z,17.37
2022-11-21T03:42:45.290Z,16.03
2022-11-21T03:45:12.725Z,15.63
2022-11-21T03:47:40.088Z,17.57
2022-11-21T03:50:07.668Z,16.87
2022-11-21T03:52:34.852Z,16.77
2022-11-21T03:55:02.637Z,16.57
2022-11-21T03:57:29.784Z,17.37
2022-11-21T03:59:56.931Z,17.40
2022-11-21T04:02:24.120Z,16.87
2022-11-21T04:04:51.244Z,16.67
2022-11-21T04:07:18.465Z,16.87
2022-11-21T04:09:45.674Z,16.50
2022-11-21T04:12:12.875Z,14.23
2022-11-21T04:14:40.195Z,13.50
2022-11-21T04:17:07.776Z,14.70
2022-11-21T04:19:34.973Z,15.90
2022-11-21T04:22:02.114Z,15.73
2022-11-21T04:24:29.554Z,13.70
2022-11-21T04:26:56.985Z,15.10
2022-11-21T04:29:24.291Z,14.40
2022-11-21T04:31:51.424Z,15.53
2022-11-21T04:34:18.666Z,14.87
2022-11-21T04:36:46.000Z,14.07
2022-11-21T04:39:13.262Z,14.50
2022-11-21T04:41:40.443Z,14.13
2022-11-21T04:44:07.668Z,15.70
2022-11-21T04:46:34.847Z,13.60
2022-11-21T04:49:02.080Z,13.03
2022-11-21T04:51:29.290Z,13.87
2022-11-21T04:53:56.481Z,12.47
2022-11-21T04:56:23.631Z,13.87
2022-11-21T04:58:52.885Z,14.60
2022-11-21T05:01:20.233Z,14.00
2022-11-21T05:03:47.461Z,13.40
2022-11-21T05:06:14.653Z,15.00
2022-11-21T05:08:41.827Z,14.77
2022-11-21T05:11:27.826Z,13.60
2022-11-21T05:13:55.300Z,13.70
2022-11-21T05:16:22.733Z,14.20
2022-11-21T05:18:50.302Z,14.23
2022-11-21T05:21:17.743Z,14.13
2022-11-21T05:23:45.354Z,15.20
2022-11-21T05:26:12.495Z,14.33
2022-11-21T05:28:41.096Z,14.80
2022-11-21T05:31:08.265Z,14.10
2022-11-21T05:33:35.436Z,15.60
2022-11-21T05:36:03.017Z,13.73
2022-11-21T05:38:30.157Z,14.50
2022-11-21T05:40:57.381Z,12.57
2022-11-21T05:43:43.177Z,15.23
2022-11-21T05:46:10.607Z,13.70
2022-11-21T05:48:37.962Z,14.13
2022-11-21T05:51:05.277Z,14.20
2022-11-21T05:53:33.382Z,12.50
2022-11-21T05:56:06.571Z,14.97
2022-11-21T05:58:34.305Z,14.87
2022-11-21T06:01:01.750Z,13.50
2022-11-21T06:03:32.749Z,14.80
2022-11-21T06:06:07.769Z,12.90
2022-11-21T06:08:43.649Z,13.60
2022-11-21T06:11:12.984Z,13.83
2022-11-21T06:13:40.453Z,14.03
2022-11-21T06:16:12.921Z,12.80
2022-11-21T06:18:42.219Z,11.43
2022-11-21T06:21:14.804Z,12.50
2022-11-21T06:23:42.482Z,13.47
2022-11-21T06:26:15.376Z,13.20
2022-11-21T06:28:44.110Z,12.30
2022-11-21T06:31:16.991Z,14.07
2022-11-21T06:33:45.478Z,13.20
2022-11-21T06:36:17.505Z,12.80
2022-11-21T06:38:45.460Z,12.60
2022-11-21T06:41:23.004Z,13.40
2022-11-21T06:43:50.387Z,13.47
2022-11-21T06:46:17.647Z,12.57
2022-11-21T06:48:44.851Z,13.40
2022-11-21T06:51:20.482Z,13.43
2022-11-21T06:53:55.817Z,12.77
2022-11-21T06:56:28.272Z,10.80
2022-11-21T06:58:55.987Z,12.67
2022-11-21T07:01:23.917Z,12.50
2022-11-21T07:03:51.718Z,13.83
2022-11-21T07:06:18.937Z,14.20
2022-11-21T07:08:46.514Z,13.20
2022-11-21T07:11:30.108Z,12.97
2022-11-21T07:13:57.255Z,13.80
2022-11-21T07:16:26.181Z,12.93
2022-11-21T07:18:53.668Z,14.37
2022-11-21T07:21:20.831Z,12.33
2022-11-21T07:23:48.918Z,12.60
2022-11-21T07:26:16.061Z,14.03
2022-11-21T07:28:43.454Z,13.90
2022-11-21T07:31:13.779Z,14.60
2022-11-21T07:33:43.411Z,13.53
2022-11-21T07:36:11.774Z,14.57
2022-11-21T07:38:40.796Z,14.53
2022-11-21T07:41:08.340Z,12.97
2022-11-21T07:43:35.541Z,14.57
2022-11-21T07:46:02.785Z,14.00
2022-11-21T07:48:29.948Z,15.40
2022-11-21T07:50:57.114Z,13.70
2022-11-21T07:53:24.345Z,12.23
2022-11-21T07:55:51.547Z,11.17
2022-11-21T07:58:18.695Z,13.57
2022-11-21T08:00:45.922Z,12.83
2022-11-21T08:03:13.558Z,14.80
2022-11-21T08:05:44.612Z,11.97
2022-11-21T08:08:13.337Z,11.77
2022-11-21T08:10:43.418Z,11.40
2022-11-21T08:13:11.596Z,11.40
2022-11-21T08:15:39.342Z,12.17
2022-11-21T08:18:11.324Z,10.47
2022-11-21T08:20:39.182Z,10.57
2022-11-21T08:23:06.905Z,13.03
2022-11-21T08:25:36.671Z,14.03
2022-11-21T08:28:04.711Z,14.43
2022-11-21T08:30:33.225Z,11.47
2022-11-21T08:33:01.355Z,13.90
2022-11-21T08:35:29.118Z,14.20
2022-11-21T08:38:00.675Z,11.90
2022-11-21T08:40:29.785Z,14.20
2022-11-21T08:43:08.476Z,11.50
2022-11-21T08:45:37.087Z,13.50
2022-11-21T08:48:04.840Z,10.30
2022-11-21T08:50:32.178Z,13.83
2022-11-21T08:53:01.614Z,12.83
2022-11-21T08:55:29.863Z,13.10
2022-11-21T08:57:57.301Z,14.20
2022-11-21T09:00:25.819Z,14.03
2022-11-21T09:02:53.284Z,15.17
2022-11-21T09:05:20.447Z,14.77
2022-11-21T09:07:48.412Z,15.07
2022-11-21T09:10:15.923Z,15.10
2022-11-21T09:12:43.407Z,13.40
2022-11-21T09:15:30.117Z,15.47
2022-11-21T09:18:04.778Z,15.27
2022-11-21T09:20:34.304Z,15.47
2022-11-21T09:23:10.791Z,15.67
2022-11-21T09:25:38.331Z,17.00
2022-11-21T09:28:07.670Z,17.37
2022-11-21T09:30:39.116Z,17.13
2022-11-21T09:33:14.912Z,14.50
2022-11-21T09:35:42.391Z,17.77
2022-11-21T09:38:09.860Z,19.43
2022-11-21T09:40:40.203Z,18.20
2022-11-21T09:43:36.175Z,16.20
2022-11-21T09:46:10.676Z,15.50
2022-11-21T09:48:43.639Z,18.53
2022-11-21T09:51:15.552Z,17.30
2022-11-21T09:53:58.522Z,16.30
2022-11-21T09:56:27.359Z,17.60
2022-11-21T09:59:19.308Z,17.80
2022-11-21T10:01:47.161Z,17.60
2022-11-21T10:04:14.645Z,15.33
2022-11-21T10:06:54.933Z,12.00
2022-11-21T10:09:44.543Z,18.83
2022-11-21T10:12:39.934Z,18.60
2022-11-21T10:15:37.981Z,18.60
2022-11-21T10:18:42.112Z,13.50
2022-11-21T10:21:24.351Z,19.70
2022-11-21T10:24:40.614Z,20.47
2022-11-21T10:27:21.724Z,17.27
2022-11-21T10:29:55.876Z,18.73
2022-11-21T10:32:38.526Z,23.90
2022-11-21T10:35:22.724Z,19.43
2022-11-21T10:37:59.562Z,20.10
2022-11-21T10:40:36.787Z,19.17
2022-11-21T10:43:42.369Z,23.60
2022-11-21T10:46:09.701Z,19.03
2022-11-21T10:48:36.874Z,16.43
2022-11-21T10:51:13.235Z,25.50
2022-11-21T10:54:03.363Z,14.67
2022-11-21T10:56:34.952Z,15.33
2022-11-21T10:59:25.688Z,12.77
2022-11-21T11:02:21.948Z,12.63
2022-11-21T11:04:52.516Z,12.80
2022-11-21T11:07:26.559Z,11.63
2022-11-21T11:10:15.600Z,12.80
2022-11-21T11:13:08.720Z,10.70
2022-11-21T11:16:02.751Z,11.07
2022-11-21T11:18:31.642Z,10.67
2022-11-21T11:21:18.808Z,11.30
2022-11-21T11:23:47.643Z,9.60
2022-11-21T11:26:30.297Z,11.60
2022-11-21T11:29:14.581Z,10.20
2022-11-21T11:32:01.765Z,10.63
2022-11-21T11:34:39.546Z,9.77
2022-11-21T11:37:18.460Z,10.63
2022-11-21T11:40:20.030Z,9.33
2022-11-21T11:43:19.155Z,7.57
2022-11-21T11:46:26.189Z,9.57
2022-11-21T11:49:20.796Z,9.17
2022-11-21T11:51:54.396Z,10.50
2022-11-21T11:54:29.752Z,8.67
2022-11-21T11:56:59.120Z,10.00
2022-11-21T11:59:43.958Z,10.67
2022-11-21T12:02:22.974Z,10.10
2022-11-21T12:04:57.615Z,10.63
2022-11-21T12:11:06.252Z,11.23
2022-11-21T12:13:34.799Z,11.10
2022-11-21T12:16:13.237Z,10.70
2022-11-21T12:19:02.853Z,10.30
2022-11-21T12:21:30.177Z,10.37
2022-11-21T12:23:58.743Z,11.83
2022-11-21T12:26:52.292Z,10.80
2022-11-21T12:29:35.515Z,10.57
2022-11-21T12:32:27.290Z,10.60
2022-11-21T12:35:12.709Z,10.67
2022-11-21T12:37:50.867Z,11.60
2022-11-21T12:40:46.051Z,9.67
2022-11-21T12:43:57.453Z,9.40
2022-11-21T12:46:56.469Z,10.83
2022-11-21T12:50:01.991Z,9.30
2022-11-21T12:52:57.496Z,9.50
2022-11-21T12:55:41.730Z,8.03
2022-11-21T12:58:39.080Z,8.40
2022-11-21T13:01:29.015Z,8.80
2022-11-21T13:04:03.630Z,8.70
2022-11-21T13:06:43.382Z,7.70
2022-11-21T13:09:16.192Z,9.13
2022-11-21T13:11:58.472Z,9.07
2022-11-21T13:14:48.272Z,9.83
2022-11-21T13:17:30.690Z,9.10
2022-11-21T13:20:24.037Z,8.40
2022-11-21T13:22:56.445Z,8.20
2022-11-21T13:25:32.776Z,8.47
2022-11-21T13:28:18.672Z,8.47
2022-11-21T13:30:56.369Z,7.90
2022-11-21T13:33:35.619Z,7.80
2022-11-21T13:36:36.683Z,6.90
2022-11-21T13:39:24.245Z,8.23
2022-11-21T13:42:10.334Z,7.50
2022-11-21T13:44:41.837Z,7.30
2022-11-21T13:47:15.092Z,5.80
2022-11-21T13:50:20.549Z,6.67
2022-11-21T13:53:12.608Z,6.07
2022-11-21T13:55:58.680Z,6.13
2022-11-21T13:58:58.399Z,6.87
2022-11-21T14:01:49.611Z,6.80
2022-11-21T14:04:35.804Z,6.30
2022-11-21T14:07:30.759Z,6.10
2022-11-21T14:10:01.455Z,5.80
2022-11-21T14:12:44.079Z,5.50
2022-11-21T14:15:23.795Z,6.00
2022-11-21T14:17:59.429Z,4.83
2022-11-21T14:20:29.212Z,5.33
2022-11-21T14:23:05.730Z,5.43
2022-11-21T14:25:40.116Z,5.90
2022-11-21T14:28:17.207Z,6.07
2022-11-21T14:30:44.795Z,5.20
2022-11-21T14:33:22.527Z,5.07
2022-11-21T14:36:03.057Z,5.50
2022-11-21T14:38:35.395Z,5.77
2022-11-21T14:41:36.218Z,6.03
2022-11-21T14:44:06.723Z,6.00
2022-11-21T14:46:44.248Z,5.73
2022-11-21T14:49:15.573Z,5.90
2022-11-21T14:51:53.300Z,5.10
2022-11-21T14:54:24.299Z,5.90
2022-11-21T14:57:03.503Z,5.80
2022-11-21T14:59:33.767Z,5.70
2022-11-21T15:02:03.429Z,5.57
2022-11-21T15:04:33.964Z,5.40
2022-11-21T15:07:03.637Z,5.70
2022-11-21T15:12:23.196Z,5.40
2022-11-21T15:14:57.434Z,5.13
2022-11-21T15:17:26.491Z,5.63
2022-11-21T15:20:12.101Z,6.13
2022-11-21T15:22:41.790Z,5.73
2022-11-21T15:25:19.713Z,5.40
2022-11-21T15:27:48.813Z,5.63
2022-11-21T15:30:22.002Z,5.40
2022-11-21T15:33:19.331Z,5.20
2022-11-21T15:35:53.553Z,5.90
2022-11-21T15:38:27.844Z,5.67
2022-11-21T15:40:56.984Z,6.07
2022-11-21T15:46:43.162Z,5.90
2022-11-21T15:52:09.579Z,6.23
2022-11-21T15:54:37.988Z,6.80
2022-11-21T15:57:05.144Z,6.23
2022-11-21T15:57:14.255Z,5.67
2022-11-21T15:59:32.548Z,5.90
2022-11-21T16:01:59.950Z,6.20
2022-11-21T16:04:27.289Z,6.43
2022-11-21T16:06:55.596Z,6.03
2022-11-21T16:09:22.940Z,5.90
2022-11-21T16:11:50.170Z,5.23
2022-11-21T16:14:18.299Z,5.70
2022-11-21T16:16:47.312Z,6.60
2022-11-21T16:19:15.310Z,5.40
2022-11-21T16:21:42.922Z,7.30
2022-11-21T16:24:10.679Z,6.90
2022-11-21T16:26:37.853Z,6.73
2022-11-21T16:29:05.640Z,6.87
2022-11-21T16:31:33.525Z,7.33
2022-11-21T16:34:00.986Z,7.40
2022-11-21T16:36:29.972Z,6.80
2022-11-21T16:39:01.885Z,6.80
2022-11-21T16:41:32.787Z,6.40
2022-11-21T16:44:00.053Z,6.80
2022-11-21T16:46:27.392Z,6.30
2022-11-21T16:49:00.485Z,6.67
2022-11-21T16:51:28.722Z,5.77
2022-11-21T16:53:57.470Z,6.97
2022-11-21T16:56:25.114Z,6.63
2022-11-21T16:58:52.613Z,7.20
2022-11-21T17:01:26.072Z,6.90
2022-11-21T17:03:53.330Z,6.97
2022-11-21T17:06:26.943Z,6.07
2022-11-21T17:08:54.814Z,8.13
2022-11-21T17:11:28.156Z,7.90
2022-11-21T17:13:58.485Z,8.23
2022-11-21T17:16:26.090Z,8.10
2022-11-21T17:18:57.941Z,8.77
2022-11-21T17:21:26.250Z,8.90
2022-11-21T17:23:53.707Z,7.63
2022-11-21T17:26:23.367Z,9.50
2022-11-21T17:28:55.948Z,11.43
2022-11-21T17:31:23.951Z,11.30
2022-11-21T17:34:00.765Z,10.67
2022-11-21T17:36:29.881Z,11.20
2022-11-21T17:38:57.604Z,11.13
2022-11-21T17:41:27.333Z,10.97
2022-11-21T17:43:57.331Z,10.70
2022-11-21T17:46:25.730Z,10.93
2022-11-21T17:48:58.053Z,10.63
2022-11-21T17:51:29.427Z,11.73
2022-11-21T17:53:57.813Z,9.83
2022-11-21T17:56:27.405Z,11.27
2022-11-21T17:58:55.340Z,10.10
2022-11-21T18:01:23.325Z,12.30
2022-11-21T18:03:58.758Z,11.60
2022-11-21T18:06:28.448Z,11.20
2022-11-21T18:08:58.552Z,10.00
2022-11-21T18:11:37.613Z,11.20
2022-11-21T18:14:07.758Z,11.53
2022-11-21T18:16:35.730Z,12.20
2022-11-21T18:19:03.327Z,11.80
2022-11-21T18:21:32.791Z,10.63
2022-11-21T18:24:00.442Z,12.00
2022-11-21T18:26:29.712Z,11.93
2022-11-21T18:31:47.030Z,13.10
2022-11-21T18:34:14.455Z,11.67
2022-11-21T18:36:42.096Z,12.03
2022-11-21T18:39:14.867Z,11.20
2022-11-21T18:41:43.338Z,11.77
2022-11-21T18:44:16.991Z,12.60
2022-11-21T18:46:48.425Z,12.53
2022-11-21T18:49:16.217Z,12.87
2022-11-21T18:51:43.888Z,12.07
2022-11-21T18:54:11.784Z,12.03
2022-11-21T18:56:40.027Z,13.57
2022-11-21T18:59:07.765Z,12.77
2022-11-21T19:01:37.303Z,12.77
2022-11-21T19:04:05.337Z,13.57
2022-11-21T19:06:32.811Z,14.67
2022-11-21T19:09:01.171Z,13.20
2022-11-21T19:11:29.723Z,12.90
2022-11-21T19:13:59.428Z,12.43
2022-11-21T19:16:28.369Z,12.87
2022-11-21T19:19:26.402Z,14.10
2022-11-21T19:21:45.052Z,14.00
2022-11-21T19:24:14.526Z,13.10
2022-11-21T19:26:42.675Z,12.80
2022-11-21T19:29:10.827Z,13.20
2022-11-21T19:31:44.799Z,13.20
2022-11-21T19:34:14.775Z,11.93
2022-11-21T19:36:43.015Z,13.47
2022-11-21T19:39:10.893Z,13.50
2022-11-21T19:41:38.541Z,14.07
2022-11-21T19:44:06.196Z,13.47
2022-11-21T19:46:36.671Z,14.10
2022-11-21T19:49:05.592Z,14.70
2022-11-21T19:51:37.334Z,13.50
2022-11-21T19:54:09.697Z,13.50
2022-11-21T19:56:37.529Z,13.27
2022-11-21T19:59:05.516Z,14.57
2022-11-21T20:01:34.778Z,13.57
2022-11-21T20:04:04.895Z,13.37
2022-11-21T20:06:33.762Z,14.63
2022-11-21T20:09:06.885Z,12.77
2022-11-21T20:11:35.095Z,15.30
2022-11-21T20:14:02.447Z,13.47
2022-11-21T20:16:35.585Z,14.77
2022-11-21T20:19:06.892Z,15.23
2022-11-21T20:21:34.609Z,14.80
2022-11-21T20:24:03.569Z,14.20
2022-11-21T20:26:31.429Z,13.77
2022-11-21T20:28:58.806Z,13.77
2022-11-21T20:31:34.949Z,13.60
2022-11-21T20:34:08.262Z,14.00
2022-11-21T20:36:36.575Z,13.67
2022-11-21T20:39:15.477Z,14.60
2022-11-21T20:41:42.941Z,15.00
2022-11-21T20:47:07.368Z,13.67
2022-11-21T20:49:35.072Z,14.67
2022-11-21T20:53:43.804Z,14.30
2022-11-21T20:54:49.687Z,14.27
2022-11-21T20:57:16.999Z,14.93
2022-11-21T20:59:44.703Z,14.40
2022-11-21T21:02:13.573Z,14.30
2022-11-21T21:04:41.528Z,13.27
2022-11-21T21:07:09.481Z,14.37
2022-11-21T21:09:36.825Z,13.40
2022-11-21T21:12:05.461Z,13.27
2022-11-21T21:14:32.609Z,13.70
2022-11-21T21:16:59.813Z,13.40
2022-11-21T21:19:27.393Z,13.80
2022-11-21T21:21:54.805Z,14.00
2022-11-21T21:24:22.170Z,11.77
2022-11-21T21:26:49.641Z,12.90
2022-11-21T21:29:19.410Z,13.80
2022-11-21T21:31:51.684Z,13.67
2022-11-21T21:34:20.698Z,13.33
2022-11-21T21:36:48.157Z,10.80
2022-11-21T21:39:15.369Z,13.23
2022-11-21T21:41:46.676Z,13.73
2022-11-21T21:44:15.391Z,11.77
2022-11-21T21:46:42.778Z,12.57
2022-11-21T21:49:10.064Z,14.40
2022-11-21T21:51:38.340Z,13.40
2022-11-21T21:54:06.404Z,13.00
2022-11-21T21:56:34.174Z,13.50
2022-11-21T21:59:01.603Z,13.93
2022-11-21T22:01:31.103Z,14.83
2022-11-21T22:04:01.112Z,13.00
2022-11-21T22:06:28.846Z,12.60
2022-11-21T22:08:56.687Z,12.33
2022-11-21T22:11:31.480Z,13.60
2022-11-21T22:14:01.523Z,14.03
2022-11-21T22:16:30.306Z,11.60
2022-11-21T22:18:57.937Z,11.77
2022-11-21T22:21:27.829Z,12.00
2022-11-21T22:24:28.807Z,12.97
2022-11-21T22:26:46.842Z,14.53
2022-11-21T22:29:13.979Z,13.07
2022-11-21T22:31:41.162Z,11.73
2022-11-21T22:34:12.313Z,12.80
2022-11-21T22:36:39.921Z,13.73
2022-11-21T22:39:07.137Z,13.80
2022-11-21T22:41:34.380Z,14.80
2022-11-21T22:44:01.604Z,13.57
2022-11-21T22:46:29.927Z,13.37
2022-11-21T22:48:57.479Z,14.53
2022-11-21T22:51:29.299Z,13.00
2022-11-21T22:53:57.254Z,14.17
2022-11-21T22:56:25.299Z,13.80
2022-11-21T22:58:52.912Z,14.00
2022-11-21T23:01:25.680Z,12.57
2022-11-21T23:03:55.467Z,14.53
2022-11-21T23:06:25.136Z,13.63
2022-11-21T23:08:54.496Z,12.70
2022-11-21T23:11:24.652Z,13.43
2022-11-21T23:13:52.443Z,13.60
2022-11-21T23:16:21.093Z,13.77
2022-11-21T23:18:51.124Z,13.37
2022-11-21T23:21:18.460Z,13.80
2022-11-21T23:23:45.740Z,12.37
2022-11-21T23:26:13.615Z,13.57
2022-11-21T23:28:41.407Z,13.40
2022-11-21T23:31:09.821Z,13.23
2022-11-21T23:33:37.024Z,13.80
2022-11-21T23:36:05.042Z,13.20
2022-11-21T23:38:32.316Z,13.77
2022-11-21T23:40:59.763Z,13.87
2022-11-21T23:43:27.588Z,14.03
2022-11-21T23:45:55.281Z,12.53
2022-11-21T23:48:26.083Z,15.20
2022-11-21T23:50:53.388Z,13.40
2022-11-21T23:53:21.418Z,12.83
2022-11-21T23:55:48.720Z,13.37
2022-11-21T23:58:16.206Z,14.00
